臺北終端管制區 - 松西席

METAR RCSS 210130Z 09015KT CAVOK 26/20 Q1017 NOSIG RMK A3004=

站台狀態:Offline
最後更新:2021-01-21 10:00:02